sensor_id;sensor_type;location;lat;lon;timestamp;P1;durP1;ratioP1;P2;durP2;ratioP2
19535;SDS011;9913;51.168;4.124;2022-11-12T00:01:35;25.50;;;16.33;;
19535;SDS011;9913;51.168;4.124;2022-11-12T00:04:22;25.00;;;16.07;;
19535;SDS011;9913;51.168;4.124;2022-11-12T00:07:11;24.60;;;15.97;;
19535;SDS011;9913;51.168;4.124;2022-11-12T00:09:58;25.47;;;16.20;;
19535;SDS011;9913;51.168;4.124;2022-11-12T00:12:45;24.20;;;15.37;;
19535;SDS011;9913;51.168;4.124;2022-11-12T00:15:32;26.10;;;16.97;;
19535;SDS011;9913;51.168;4.124;2022-11-12T00:18:19;26.63;;;16.33;;
19535;SDS011;9913;51.168;4.124;2022-11-12T00:21:07;24.37;;;15.87;;
19535;SDS011;9913;51.168;4.124;2022-11-12T00:23:55;25.10;;;15.37;;
19535;SDS011;9913;51.168;4.124;2022-11-12T00:26:41;23.47;;;15.03;;
19535;SDS011;9913;51.168;4.124;2022-11-12T00:29:28;25.10;;;14.83;;
19535;SDS011;9913;51.168;4.124;2022-11-12T00:32:15;24.73;;;14.83;;
19535;SDS011;9913;51.168;4.124;2022-11-12T00:35:02;23.20;;;15.63;;
19535;SDS011;9913;51.168;4.124;2022-11-12T00:37:58;25.90;;;15.90;;
19535;SDS011;9913;51.168;4.124;2022-11-12T00:40:46;29.07;;;16.73;;
19535;SDS011;9913;51.168;4.124;2022-11-12T00:43:33;28.07;;;16.67;;
19535;SDS011;9913;51.168;4.124;2022-11-12T00:46:20;25.90;;;16.07;;
19535;SDS011;9913;51.168;4.124;2022-11-12T00:49:07;23.30;;;14.87;;
19535;SDS011;9913;51.168;4.124;2022-11-12T00:51:54;23.23;;;15.00;;
19535;SDS011;9913;51.168;4.124;2022-11-12T00:54:40;23.87;;;15.97;;
19535;SDS011;9913;51.168;4.124;2022-11-12T00:57:29;23.30;;;14.87;;
19535;SDS011;9913;51.168;4.124;2022-11-12T01:00:16;23.50;;;14.73;;
19535;SDS011;9913;51.168;4.124;2022-11-12T01:03:04;23.23;;;14.13;;
19535;SDS011;9913;51.168;4.124;2022-11-12T01:05:51;22.03;;;14.27;;
19535;SDS011;9913;51.168;4.124;2022-11-12T01:08:38;22.73;;;13.77;;
19535;SDS011;9913;51.168;4.124;2022-11-12T01:11:25;24.73;;;14.60;;
19535;SDS011;9913;51.168;4.124;2022-11-12T01:14:15;19.70;;;12.63;;
19535;SDS011;9913;51.168;4.124;2022-11-12T01:17:01;20.50;;;13.17;;
19535;SDS011;9913;51.168;4.124;2022-11-12T01:19:48;22.50;;;14.17;;
19535;SDS011;9913;51.168;4.124;2022-11-12T01:22:35;16.63;;;12.47;;
19535;SDS011;9913;51.168;4.124;2022-11-12T01:25:22;19.93;;;12.67;;
19535;SDS011;9913;51.168;4.124;2022-11-12T01:28:09;23.40;;;12.60;;
19535;SDS011;9913;51.168;4.124;2022-11-12T01:30:57;20.73;;;12.60;;
19535;SDS011;9913;51.168;4.124;2022-11-12T01:33:44;20.10;;;13.70;;
19535;SDS011;9913;51.168;4.124;2022-11-12T01:36:33;17.43;;;12.33;;
19535;SDS011;9913;51.168;4.124;2022-11-12T01:39:21;17.37;;;11.80;;
19535;SDS011;9913;51.168;4.124;2022-11-12T01:42:08;17.90;;;12.70;;
19535;SDS011;9913;51.168;4.124;2022-11-12T01:44:57;18.67;;;11.93;;
19535;SDS011;9913;51.168;4.124;2022-11-12T01:47:45;16.97;;;11.93;;
19535;SDS011;9913;51.168;4.124;2022-11-12T01:50:36;19.77;;;13.00;;
19535;SDS011;9913;51.168;4.124;2022-11-12T01:53:25;23.13;;;12.93;;
19535;SDS011;9913;51.168;4.124;2022-11-12T01:56:14;16.93;;;12.00;;
19535;SDS011;9913;51.168;4.124;2022-11-12T01:59:06;19.17;;;12.10;;
19535;SDS011;9913;51.168;4.124;2022-11-12T02:01:57;18.87;;;12.33;;
19535;SDS011;9913;51.168;4.124;2022-11-12T02:04:46;18.20;;;11.70;;
19535;SDS011;9913;51.168;4.124;2022-11-12T02:07:34;18.20;;;11.23;;
19535;SDS011;9913;51.168;4.124;2022-11-12T02:10:24;19.27;;;12.00;;
19535;SDS011;9913;51.168;4.124;2022-11-12T02:13:11;20.27;;;11.63;;
19535;SDS011;9913;51.168;4.124;2022-11-12T02:16:15;22.00;;;12.23;;
19535;SDS011;9913;51.168;4.124;2022-11-12T02:19:03;17.10;;;11.90;;
19535;SDS011;9913;51.168;4.124;2022-11-12T02:21:52;18.63;;;11.73;;
19535;SDS011;9913;51.168;4.124;2022-11-12T02:24:39;18.10;;;12.17;;
19535;SDS011;9913;51.168;4.124;2022-11-12T02:27:26;18.23;;;12.27;;
19535;SDS011;9913;51.168;4.124;2022-11-12T02:30:13;18.80;;;11.43;;
19535;SDS011;9913;51.168;4.124;2022-11-12T02:33:00;17.23;;;12.37;;
19535;SDS011;9913;51.168;4.124;2022-11-12T02:35:48;16.40;;;11.20;;
19535;SDS011;9913;51.168;4.124;2022-11-12T02:38:36;18.90;;;11.23;;
19535;SDS011;9913;51.168;4.124;2022-11-12T02:41:23;19.20;;;11.43;;
19535;SDS011;9913;51.168;4.124;2022-11-12T02:44:10;14.97;;;10.47;;
19535;SDS011;9913;51.168;4.124;2022-11-12T02:46:56;18.57;;;11.43;;
19535;SDS011;9913;51.168;4.124;2022-11-12T02:49:43;17.80;;;10.63;;
19535;SDS011;9913;51.168;4.124;2022-11-12T02:52:30;15.73;;;11.37;;
19535;SDS011;9913;51.168;4.124;2022-11-12T02:55:18;15.37;;;10.40;;
19535;SDS011;9913;51.168;4.124;2022-11-12T02:58:05;15.13;;;9.67;;
19535;SDS011;9913;51.168;4.124;2022-11-12T03:00:52;14.00;;;9.40;;
19535;SDS011;9913;51.168;4.124;2022-11-12T03:03:39;13.20;;;9.97;;
19535;SDS011;9913;51.168;4.124;2022-11-12T03:06:26;15.47;;;10.03;;
19535;SDS011;9913;51.168;4.124;2022-11-12T03:09:13;16.37;;;10.23;;
19535;SDS011;9913;51.168;4.124;2022-11-12T03:12:01;15.40;;;9.83;;
19535;SDS011;9913;51.168;4.124;2022-11-12T03:14:49;13.93;;;9.97;;
19535;SDS011;9913;51.168;4.124;2022-11-12T03:17:35;13.47;;;10.30;;
19535;SDS011;9913;51.168;4.124;2022-11-12T03:20:22;14.57;;;9.13;;
19535;SDS011;9913;51.168;4.124;2022-11-12T03:23:09;15.10;;;10.13;;
19535;SDS011;9913;51.168;4.124;2022-11-12T03:25:56;13.23;;;9.30;;
19535;SDS011;9913;51.168;4.124;2022-11-12T03:28:44;14.10;;;9.67;;
19535;SDS011;9913;51.168;4.124;2022-11-12T03:31:31;11.50;;;8.93;;
19535;SDS011;9913;51.168;4.124;2022-11-12T03:34:19;14.30;;;9.37;;
19535;SDS011;9913;51.168;4.124;2022-11-12T03:37:06;15.90;;;9.93;;
19535;SDS011;9913;51.168;4.124;2022-11-12T03:39:53;13.67;;;9.80;;
19535;SDS011;9913;51.168;4.124;2022-11-12T03:42:43;17.03;;;10.87;;
19535;SDS011;9913;51.168;4.124;2022-11-12T03:45:32;16.50;;;10.13;;
19535;SDS011;9913;51.168;4.124;2022-11-12T03:48:19;17.90;;;11.03;;
19535;SDS011;9913;51.168;4.124;2022-11-12T03:51:06;17.77;;;11.03;;
19535;SDS011;9913;51.168;4.124;2022-11-12T03:53:53;20.13;;;12.10;;
19535;SDS011;9913;51.168;4.124;2022-11-12T03:56:40;17.17;;;11.90;;
19535;SDS011;9913;51.168;4.124;2022-11-12T03:59:27;17.33;;;11.60;;
19535;SDS011;9913;51.168;4.124;2022-11-12T04:02:15;14.97;;;11.03;;
19535;SDS011;9913;51.168;4.124;2022-11-12T04:05:02;21.43;;;11.83;;
19535;SDS011;9913;51.168;4.124;2022-11-12T04:08:09;15.97;;;11.50;;
19535;SDS011;9913;51.168;4.124;2022-11-12T04:11:16;14.63;;;11.10;;
19535;SDS011;9913;51.168;4.124;2022-11-12T04:14:02;19.30;;;11.80;;
19535;SDS011;9913;51.168;4.124;2022-11-12T04:16:49;15.73;;;10.40;;
19535;SDS011;9913;51.168;4.124;2022-11-12T04:19:55;16.87;;;10.33;;
19535;SDS011;9913;51.168;4.124;2022-11-12T04:22:59;15.87;;;10.50;;
19535;SDS011;9913;51.168;4.124;2022-11-12T04:25:46;19.03;;;12.03;;
19535;SDS011;9913;51.168;4.124;2022-11-12T04:28:51;15.27;;;10.47;;
19535;SDS011;9913;51.168;4.124;2022-11-12T04:31:55;16.27;;;11.13;;
19535;SDS011;9913;51.168;4.124;2022-11-12T04:34:42;20.23;;;11.30;;
19535;SDS011;9913;51.168;4.124;2022-11-12T04:37:31;14.20;;;10.33;;
19535;SDS011;9913;51.168;4.124;2022-11-12T04:40:29;16.20;;;10.80;;
19535;SDS011;9913;51.168;4.124;2022-11-12T04:43:34;14.73;;;10.30;;
19535;SDS011;9913;51.168;4.124;2022-11-12T04:46:38;15.97;;;9.80;;
19535;SDS011;9913;51.168;4.124;2022-11-12T04:49:25;15.93;;;10.13;;
19535;SDS011;9913;51.168;4.124;2022-11-12T04:52:14;15.20;;;10.43;;
19535;SDS011;9913;51.168;4.124;2022-11-12T04:55:03;13.87;;;9.37;;
19535;SDS011;9913;51.168;4.124;2022-11-12T04:57:50;14.10;;;9.47;;
19535;SDS011;9913;51.168;4.124;2022-11-12T05:00:44;12.47;;;8.40;;
19535;SDS011;9913;51.168;4.124;2022-11-12T05:03:31;16.87;;;10.40;;
19535;SDS011;9913;51.168;4.124;2022-11-12T05:06:18;15.50;;;10.20;;
19535;SDS011;9913;51.168;4.124;2022-11-12T05:09:23;16.80;;;10.73;;
19535;SDS011;9913;51.168;4.124;2022-11-12T05:12:13;16.37;;;10.87;;
19535;SDS011;9913;51.168;4.124;2022-11-12T05:15:00;16.80;;;10.83;;
19535;SDS011;9913;51.168;4.124;2022-11-12T05:17:47;15.40;;;10.73;;
19535;SDS011;9913;51.168;4.124;2022-11-12T05:20:34;18.83;;;10.73;;
19535;SDS011;9913;51.168;4.124;2022-11-12T05:23:20;17.47;;;11.00;;
19535;SDS011;9913;51.168;4.124;2022-11-12T05:26:07;17.53;;;11.47;;
19535;SDS011;9913;51.168;4.124;2022-11-12T05:28:55;16.83;;;11.30;;
19535;SDS011;9913;51.168;4.124;2022-11-12T05:31:42;18.93;;;11.83;;
19535;SDS011;9913;51.168;4.124;2022-11-12T05:34:29;18.50;;;11.60;;
19535;SDS011;9913;51.168;4.124;2022-11-12T05:37:17;16.03;;;10.87;;
19535;SDS011;9913;51.168;4.124;2022-11-12T05:40:04;23.00;;;12.30;;
19535;SDS011;9913;51.168;4.124;2022-11-12T05:42:52;17.23;;;10.97;;
19535;SDS011;9913;51.168;4.124;2022-11-12T05:45:42;20.83;;;12.90;;
19535;SDS011;9913;51.168;4.124;2022-11-12T05:48:29;17.67;;;11.23;;
19535;SDS011;9913;51.168;4.124;2022-11-12T05:51:16;16.87;;;11.57;;
19535;SDS011;9913;51.168;4.124;2022-11-12T05:54:03;17.80;;;11.73;;
19535;SDS011;9913;51.168;4.124;2022-11-12T05:56:50;20.83;;;12.50;;
19535;SDS011;9913;51.168;4.124;2022-11-12T05:59:37;18.83;;;11.87;;
19535;SDS011;9913;51.168;4.124;2022-11-12T06:02:25;16.13;;;11.17;;
19535;SDS011;9913;51.168;4.124;2022-11-12T06:05:12;15.30;;;10.83;;
19535;SDS011;9913;51.168;4.124;2022-11-12T06:08:00;17.13;;;10.57;;
19535;SDS011;9913;51.168;4.124;2022-11-12T06:10:47;19.03;;;11.73;;
19535;SDS011;9913;51.168;4.124;2022-11-12T06:13:34;15.60;;;10.60;;
19535;SDS011;9913;51.168;4.124;2022-11-12T06:16:21;15.83;;;10.60;;
19535;SDS011;9913;51.168;4.124;2022-11-12T06:19:10;23.57;;;11.37;;
19535;SDS011;9913;51.168;4.124;2022-11-12T06:21:57;15.07;;;10.20;;
19535;SDS011;9913;51.168;4.124;2022-11-12T06:24:44;15.23;;;10.33;;
19535;SDS011;9913;51.168;4.124;2022-11-12T06:27:31;16.03;;;9.90;;
19535;SDS011;9913;51.168;4.124;2022-11-12T06:30:18;17.03;;;9.47;;
19535;SDS011;9913;51.168;4.124;2022-11-12T06:33:10;15.67;;;10.17;;
19535;SDS011;9913;51.168;4.124;2022-11-12T06:35:58;13.87;;;10.13;;
19535;SDS011;9913;51.168;4.124;2022-11-12T06:38:47;15.83;;;10.70;;
19535;SDS011;9913;51.168;4.124;2022-11-12T06:41:34;13.20;;;9.60;;
19535;SDS011;9913;51.168;4.124;2022-11-12T06:44:20;15.37;;;9.70;;
19535;SDS011;9913;51.168;4.124;2022-11-12T06:47:07;13.87;;;9.50;;
19535;SDS011;9913;51.168;4.124;2022-11-12T06:49:54;13.20;;;8.60;;
19535;SDS011;9913;51.168;4.124;2022-11-12T06:52:43;13.90;;;9.53;;
19535;SDS011;9913;51.168;4.124;2022-11-12T06:55:29;14.67;;;9.73;;
19535;SDS011;9913;51.168;4.124;2022-11-12T06:58:16;15.70;;;8.87;;
19535;SDS011;9913;51.168;4.124;2022-11-12T07:01:06;15.77;;;9.37;;
19535;SDS011;9913;51.168;4.124;2022-11-12T07:03:56;15.60;;;9.10;;
19535;SDS011;9913;51.168;4.124;2022-11-12T07:06:43;15.97;;;9.20;;
19535;SDS011;9913;51.168;4.124;2022-11-12T07:09:31;13.40;;;8.97;;
19535;SDS011;9913;51.168;4.124;2022-11-12T07:12:18;12.83;;;9.17;;
19535;SDS011;9913;51.168;4.124;2022-11-12T07:15:05;16.73;;;9.37;;
19535;SDS011;9913;51.168;4.124;2022-11-12T07:17:52;14.07;;;9.67;;
19535;SDS011;9913;51.168;4.124;2022-11-12T07:20:38;15.87;;;10.17;;
19535;SDS011;9913;51.168;4.124;2022-11-12T07:23:25;14.47;;;9.70;;
19535;SDS011;9913;51.168;4.124;2022-11-12T07:26:14;17.77;;;10.33;;
19535;SDS011;9913;51.168;4.124;2022-11-12T07:29:05;18.07;;;10.63;;
19535;SDS011;9913;51.168;4.124;2022-11-12T07:31:52;16.10;;;10.60;;
19535;SDS011;9913;51.168;4.124;2022-11-12T07:34:39;15.23;;;9.80;;
19535;SDS011;9913;51.168;4.124;2022-11-12T07:37:25;14.80;;;9.67;;
19535;SDS011;9913;51.168;4.124;2022-11-12T07:40:12;16.67;;;10.77;;
19535;SDS011;9913;51.168;4.124;2022-11-12T07:43:01;17.70;;;11.07;;
19535;SDS011;9913;51.168;4.124;2022-11-12T07:45:48;15.57;;;10.27;;
19535;SDS011;9913;51.168;4.124;2022-11-12T07:48:35;16.33;;;10.10;;
19535;SDS011;9913;51.168;4.124;2022-11-12T07:51:22;17.00;;;10.70;;
19535;SDS011;9913;51.168;4.124;2022-11-12T07:54:10;16.57;;;10.93;;
19535;SDS011;9913;51.168;4.124;2022-11-12T07:56:58;17.33;;;10.30;;
19535;SDS011;9913;51.168;4.124;2022-11-12T07:59:46;18.93;;;11.30;;
19535;SDS011;9913;51.168;4.124;2022-11-12T08:02:33;15.37;;;10.63;;
19535;SDS011;9913;51.168;4.124;2022-11-12T08:05:20;17.73;;;10.77;;
19535;SDS011;9913;51.168;4.124;2022-11-12T08:08:07;18.20;;;11.23;;
19535;SDS011;9913;51.168;4.124;2022-11-12T08:10:54;17.37;;;10.80;;
19535;SDS011;9913;51.168;4.124;2022-11-12T08:13:41;17.10;;;10.97;;
19535;SDS011;9913;51.168;4.124;2022-11-12T08:16:30;16.10;;;10.30;;
19535;SDS011;9913;51.168;4.124;2022-11-12T08:19:17;16.63;;;10.57;;
19535;SDS011;9913;51.168;4.124;2022-11-12T08:22:04;17.87;;;10.90;;
19535;SDS011;9913;51.168;4.124;2022-11-12T08:24:51;18.60;;;11.50;;
19535;SDS011;9913;51.168;4.124;2022-11-12T08:27:37;18.83;;;11.50;;
19535;SDS011;9913;51.168;4.124;2022-11-12T08:30:25;19.17;;;12.17;;
19535;SDS011;9913;51.168;4.124;2022-11-12T08:33:13;18.60;;;11.53;;
19535;SDS011;9913;51.168;4.124;2022-11-12T08:36:01;20.03;;;11.70;;
19535;SDS011;9913;51.168;4.124;2022-11-12T08:38:50;16.70;;;10.57;;
19535;SDS011;9913;51.168;4.124;2022-11-12T08:41:38;17.27;;;11.33;;
19535;SDS011;9913;51.168;4.124;2022-11-12T08:44:25;18.20;;;11.13;;
19535;SDS011;9913;51.168;4.124;2022-11-12T08:47:12;17.27;;;10.87;;
19535;SDS011;9913;51.168;4.124;2022-11-12T08:50:00;16.03;;;10.43;;
19535;SDS011;9913;51.168;4.124;2022-11-12T08:52:47;16.63;;;11.07;;
19535;SDS011;9913;51.168;4.124;2022-11-12T08:55:34;18.33;;;10.33;;
19535;SDS011;9913;51.168;4.124;2022-11-12T08:58:21;16.40;;;10.47;;
19535;SDS011;9913;51.168;4.124;2022-11-12T09:01:09;14.23;;;10.47;;
19535;SDS011;9913;51.168;4.124;2022-11-12T09:03:56;16.57;;;9.87;;
19535;SDS011;9913;51.168;4.124;2022-11-12T09:06:44;16.17;;;10.50;;
19535;SDS011;9913;51.168;4.124;2022-11-12T09:09:37;18.23;;;11.20;;
19535;SDS011;9913;51.168;4.124;2022-11-12T09:12:24;18.90;;;10.67;;
19535;SDS011;9913;51.168;4.124;2022-11-12T09:15:11;14.27;;;10.23;;
19535;SDS011;9913;51.168;4.124;2022-11-12T09:18:17;14.53;;;10.07;;
19535;SDS011;9913;51.168;4.124;2022-11-12T09:21:05;14.50;;;10.03;;
19535;SDS011;9913;51.168;4.124;2022-11-12T09:23:55;16.63;;;9.30;;
19535;SDS011;9913;51.168;4.124;2022-11-12T09:26:41;14.13;;;9.10;;
19535;SDS011;9913;51.168;4.124;2022-11-12T09:29:28;14.20;;;9.20;;
19535;SDS011;9913;51.168;4.124;2022-11-12T09:32:15;13.63;;;9.23;;
19535;SDS011;9913;51.168;4.124;2022-11-12T09:35:02;13.00;;;9.20;;
19535;SDS011;9913;51.168;4.124;2022-11-12T09:37:49;11.83;;;8.67;;
19535;SDS011;9913;51.168;4.124;2022-11-12T09:40:40;13.40;;;9.27;;
19535;SDS011;9913;51.168;4.124;2022-11-12T09:43:47;12.73;;;9.63;;
19535;SDS011;9913;51.168;4.124;2022-11-12T09:46:37;12.10;;;9.10;;
19535;SDS011;9913;51.168;4.124;2022-11-12T09:49:29;16.77;;;9.50;;
19535;SDS011;9913;51.168;4.124;2022-11-12T09:52:22;12.47;;;8.83;;
19535;SDS011;9913;51.168;4.124;2022-11-12T09:55:13;12.60;;;9.03;;
19535;SDS011;9913;51.168;4.124;2022-11-12T09:58:08;12.90;;;8.20;;
19535;SDS011;9913;51.168;4.124;2022-11-12T10:00:56;12.27;;;7.67;;
19535;SDS011;9913;51.168;4.124;2022-11-12T10:03:51;13.37;;;8.10;;
19535;SDS011;9913;51.168;4.124;2022-11-12T10:06:46;9.57;;;7.57;;
19535;SDS011;9913;51.168;4.124;2022-11-12T10:09:39;11.63;;;7.37;;
19535;SDS011;9913;51.168;4.124;2022-11-12T10:12:38;8.73;;;6.77;;
19535;SDS011;9913;51.168;4.124;2022-11-12T10:15:38;10.67;;;7.00;;
19535;SDS011;9913;51.168;4.124;2022-11-12T10:18:50;7.03;;;5.67;;
19535;SDS011;9913;51.168;4.124;2022-11-12T10:22:03;8.50;;;5.90;;
19535;SDS011;9913;51.168;4.124;2022-11-12T10:25:07;8.37;;;5.37;;
19535;SDS011;9913;51.168;4.124;2022-11-12T10:27:58;8.10;;;5.30;;
19535;SDS011;9913;51.168;4.124;2022-11-12T10:30:52;7.30;;;5.03;;
19535;SDS011;9913;51.168;4.124;2022-11-12T10:33:43;9.77;;;5.13;;
19535;SDS011;9913;51.168;4.124;2022-11-12T10:36:30;7.37;;;5.00;;
19535;SDS011;9913;51.168;4.124;2022-11-12T10:39:30;8.80;;;5.53;;
19535;SDS011;9913;51.168;4.124;2022-11-12T10:42:22;7.53;;;5.97;;
19535;SDS011;9913;51.168;4.124;2022-11-12T10:45:17;9.33;;;6.03;;
19535;SDS011;9913;51.168;4.124;2022-11-12T10:48:08;9.47;;;6.23;;
19535;SDS011;9913;51.168;4.124;2022-11-12T10:51:18;9.50;;;6.17;;
19535;SDS011;9913;51.168;4.124;2022-11-12T10:54:26;9.07;;;5.57;;
19535;SDS011;9913;51.168;4.124;2022-11-12T10:57:18;8.70;;;5.73;;
19535;SDS011;9913;51.168;4.124;2022-11-12T11:00:16;7.60;;;5.83;;
19535;SDS011;9913;51.168;4.124;2022-11-12T11:03:06;9.40;;;6.00;;
19535;SDS011;9913;51.168;4.124;2022-11-12T11:06:03;10.00;;;6.00;;
19535;SDS011;9913;51.168;4.124;2022-11-12T11:08:51;9.47;;;6.50;;
19535;SDS011;9913;51.168;4.124;2022-11-12T11:11:47;7.97;;;5.33;;
19535;SDS011;9913;51.168;4.124;2022-11-12T11:14:34;9.37;;;6.70;;
19535;SDS011;9913;51.168;4.124;2022-11-12T11:17:22;11.33;;;6.87;;
19535;SDS011;9913;51.168;4.124;2022-11-12T11:20:15;8.17;;;6.30;;
19535;SDS011;9913;51.168;4.124;2022-11-12T11:23:06;7.97;;;5.97;;
19535;SDS011;9913;51.168;4.124;2022-11-12T11:26:02;9.67;;;6.40;;
19535;SDS011;9913;51.168;4.124;2022-11-12T11:28:59;9.93;;;6.17;;
19535;SDS011;9913;51.168;4.124;2022-11-12T11:32:03;10.07;;;5.80;;
19535;SDS011;9913;51.168;4.124;2022-11-12T11:35:01;9.60;;;5.93;;
19535;SDS011;9913;51.168;4.124;2022-11-12T11:38:05;9.00;;;6.03;;
19535;SDS011;9913;51.168;4.124;2022-11-12T11:41:09;8.50;;;6.43;;
19535;SDS011;9913;51.168;4.124;2022-11-12T11:44:12;9.60;;;6.30;;
19535;SDS011;9913;51.168;4.124;2022-11-12T11:47:10;9.80;;;5.80;;
19535;SDS011;9913;51.168;4.124;2022-11-12T11:50:15;10.33;;;6.97;;
19535;SDS011;9913;51.168;4.124;2022-11-12T11:53:11;8.23;;;5.73;;
19535;SDS011;9913;51.168;4.124;2022-11-12T11:56:08;7.83;;;5.77;;
19535;SDS011;9913;51.168;4.124;2022-11-12T11:59:04;7.23;;;5.33;;
19535;SDS011;9913;51.168;4.124;2022-11-12T12:02:11;9.90;;;6.03;;
19535;SDS011;9913;51.168;4.124;2022-11-12T12:05:17;10.43;;;5.90;;
19535;SDS011;9913;51.168;4.124;2022-11-12T12:08:17;7.00;;;5.40;;
19535;SDS011;9913;51.168;4.124;2022-11-12T12:11:14;7.90;;;5.30;;
19535;SDS011;9913;51.168;4.124;2022-11-12T12:14:09;7.73;;;4.90;;
19535;SDS011;9913;51.168;4.124;2022-11-12T12:17:14;8.63;;;4.60;;
19535;SDS011;9913;51.168;4.124;2022-11-12T12:20:18;7.50;;;5.43;;
19535;SDS011;9913;51.168;4.124;2022-11-12T12:23:10;7.97;;;5.43;;
19535;SDS011;9913;51.168;4.124;2022-11-12T12:26:06;7.13;;;4.70;;
19535;SDS011;9913;51.168;4.124;2022-11-12T12:29:00;8.53;;;5.87;;
19535;SDS011;9913;51.168;4.124;2022-11-12T12:31:54;6.67;;;4.70;;
19535;SDS011;9913;51.168;4.124;2022-11-12T12:34:46;9.03;;;5.33;;
19535;SDS011;9913;51.168;4.124;2022-11-12T12:37:38;8.90;;;5.33;;
19535;SDS011;9913;51.168;4.124;2022-11-12T12:40:31;9.33;;;4.80;;
19535;SDS011;9913;51.168;4.124;2022-11-12T12:43:22;8.23;;;5.47;;
19535;SDS011;9913;51.168;4.124;2022-11-12T12:46:19;7.13;;;4.83;;
19535;SDS011;9913;51.168;4.124;2022-11-12T12:49:12;8.83;;;5.13;;
19535;SDS011;9913;51.168;4.124;2022-11-12T12:52:05;7.40;;;5.40;;
19535;SDS011;9913;51.168;4.124;2022-11-12T12:54:55;7.70;;;5.37;;
19535;SDS011;9913;51.168;4.124;2022-11-12T12:57:43;7.00;;;5.27;;
19535;SDS011;9913;51.168;4.124;2022-11-12T13:00:44;9.60;;;6.13;;
19535;SDS011;9913;51.168;4.124;2022-11-12T13:03:43;8.37;;;5.30;;
19535;SDS011;9913;51.168;4.124;2022-11-12T13:06:36;7.80;;;5.33;;
19535;SDS011;9913;51.168;4.124;2022-11-12T13:09:25;7.83;;;5.40;;
19535;SDS011;9913;51.168;4.124;2022-11-12T13:12:14;6.67;;;4.93;;
19535;SDS011;9913;51.168;4.124;2022-11-12T13:15:10;7.57;;;5.17;;
19535;SDS011;9913;51.168;4.124;2022-11-12T13:18:00;7.80;;;4.73;;
19535;SDS011;9913;51.168;4.124;2022-11-12T13:23:54;6.83;;;5.23;;
19535;SDS011;9913;51.168;4.124;2022-11-12T13:26:52;7.80;;;5.33;;
19535;SDS011;9913;51.168;4.124;2022-11-12T13:29:41;7.20;;;5.20;;
19535;SDS011;9913;51.168;4.124;2022-11-12T13:32:32;5.70;;;4.40;;
19535;SDS011;9913;51.168;4.124;2022-11-12T13:35:26;7.07;;;4.90;;
19535;SDS011;9913;51.168;4.124;2022-11-12T13:38:18;8.50;;;5.43;;
19535;SDS011;9913;51.168;4.124;2022-11-12T13:41:06;8.23;;;5.40;;
19535;SDS011;9913;51.168;4.124;2022-11-12T13:44:02;8.90;;;5.03;;
19535;SDS011;9913;51.168;4.124;2022-11-12T13:46:51;7.47;;;4.80;;
19535;SDS011;9913;51.168;4.124;2022-11-12T13:49:40;7.87;;;4.90;;
19535;SDS011;9913;51.168;4.124;2022-11-12T13:52:29;8.53;;;5.37;;
19535;SDS011;9913;51.168;4.124;2022-11-12T13:55:16;7.17;;;5.10;;
19535;SDS011;9913;51.168;4.124;2022-11-12T13:58:04;6.50;;;4.60;;
19535;SDS011;9913;51.168;4.124;2022-11-12T14:01:03;8.23;;;4.97;;
19535;SDS011;9913;51.168;4.124;2022-11-12T14:03:52;7.33;;;4.97;;
19535;SDS011;9913;51.168;4.124;2022-11-12T14:06:39;9.07;;;5.27;;
19535;SDS011;9913;51.168;4.124;2022-11-12T14:09:42;8.60;;;5.57;;
19535;SDS011;9913;51.168;4.124;2022-11-12T14:12:42;7.73;;;5.50;;
19535;SDS011;9913;51.168;4.124;2022-11-12T14:15:49;7.83;;;5.10;;
19535;SDS011;9913;51.168;4.124;2022-11-12T14:18:52;8.57;;;4.53;;
19535;SDS011;9913;51.168;4.124;2022-11-12T14:21:58;7.53;;;4.83;;
19535;SDS011;9913;51.168;4.124;2022-11-12T14:24:48;8.10;;;5.23;;
19535;SDS011;9913;51.168;4.124;2022-11-12T14:27:39;7.63;;;5.03;;
19535;SDS011;9913;51.168;4.124;2022-11-12T14:30:27;8.40;;;5.43;;
19535;SDS011;9913;51.168;4.124;2022-11-12T14:33:16;8.03;;;5.30;;
19535;SDS011;9913;51.168;4.124;2022-11-12T14:36:05;8.47;;;5.67;;
19535;SDS011;9913;51.168;4.124;2022-11-12T14:38:57;9.90;;;5.73;;
19535;SDS011;9913;51.168;4.124;2022-11-12T14:41:46;8.63;;;5.53;;
19535;SDS011;9913;51.168;4.124;2022-11-12T14:44:35;8.20;;;6.10;;
19535;SDS011;9913;51.168;4.124;2022-11-12T14:47:23;8.77;;;5.10;;
19535;SDS011;9913;51.168;4.124;2022-11-12T14:50:11;8.20;;;5.00;;
19535;SDS011;9913;51.168;4.124;2022-11-12T14:53:01;6.90;;;4.67;;
19535;SDS011;9913;51.168;4.124;2022-11-12T14:55:53;8.93;;;5.37;;
19535;SDS011;9913;51.168;4.124;2022-11-12T14:58:42;9.53;;;5.30;;
19535;SDS011;9913;51.168;4.124;2022-11-12T15:01:30;8.00;;;5.67;;
19535;SDS011;9913;51.168;4.124;2022-11-12T15:04:40;6.17;;;4.67;;
19535;SDS011;9913;51.168;4.124;2022-11-12T15:07:29;8.10;;;4.87;;
19535;SDS011;9913;51.168;4.124;2022-11-12T15:10:27;6.97;;;4.67;;
19535;SDS011;9913;51.168;4.124;2022-11-12T15:13:18;6.83;;;4.93;;
19535;SDS011;9913;51.168;4.124;2022-11-12T15:16:09;5.80;;;4.27;;
19535;SDS011;9913;51.168;4.124;2022-11-12T15:22:15;7.57;;;5.00;;
19535;SDS011;9913;51.168;4.124;2022-11-12T15:25:08;6.43;;;4.73;;
19535;SDS011;9913;51.168;4.124;2022-11-12T15:28:10;7.70;;;5.27;;
19535;SDS011;9913;51.168;4.124;2022-11-12T15:30:58;7.00;;;4.83;;
19535;SDS011;9913;51.168;4.124;2022-11-12T15:33:47;8.73;;;5.57;;
19535;SDS011;9913;51.168;4.124;2022-11-12T15:36:34;6.93;;;4.90;;
19535;SDS011;9913;51.168;4.124;2022-11-12T15:39:20;8.43;;;6.03;;
19535;SDS011;9913;51.168;4.124;2022-11-12T15:42:13;11.17;;;5.90;;
19535;SDS011;9913;51.168;4.124;2022-11-12T15:45:03;7.40;;;5.37;;
19535;SDS011;9913;51.168;4.124;2022-11-12T15:47:55;7.87;;;5.13;;
19535;SDS011;9913;51.168;4.124;2022-11-12T15:50:44;9.63;;;5.80;;
19535;SDS011;9913;51.168;4.124;2022-11-12T15:53:31;7.43;;;5.40;;
19535;SDS011;9913;51.168;4.124;2022-11-12T15:56:18;8.17;;;5.60;;
19535;SDS011;9913;51.168;4.124;2022-11-12T15:59:07;12.73;;;6.03;;
19535;SDS011;9913;51.168;4.124;2022-11-12T16:01:56;11.27;;;7.23;;
19535;SDS011;9913;51.168;4.124;2022-11-12T16:04:42;10.53;;;6.57;;
19535;SDS011;9913;51.168;4.124;2022-11-12T16:07:30;8.70;;;6.40;;
19535;SDS011;9913;51.168;4.124;2022-11-12T16:10:17;10.70;;;7.37;;
19535;SDS011;9913;51.168;4.124;2022-11-12T16:13:05;11.10;;;6.73;;
19535;SDS011;9913;51.168;4.124;2022-11-12T16:15:52;8.93;;;6.47;;
19535;SDS011;9913;51.168;4.124;2022-11-12T16:18:39;12.30;;;6.93;;
19535;SDS011;9913;51.168;4.124;2022-11-12T16:21:26;9.37;;;6.43;;
19535;SDS011;9913;51.168;4.124;2022-11-12T16:24:14;10.57;;;6.57;;
19535;SDS011;9913;51.168;4.124;2022-11-12T16:27:02;8.20;;;5.93;;
19535;SDS011;9913;51.168;4.124;2022-11-12T16:29:51;9.17;;;6.67;;
19535;SDS011;9913;51.168;4.124;2022-11-12T16:32:38;11.10;;;7.40;;
19535;SDS011;9913;51.168;4.124;2022-11-12T16:35:25;10.03;;;6.93;;
19535;SDS011;9913;51.168;4.124;2022-11-12T16:38:14;14.00;;;8.43;;
19535;SDS011;9913;51.168;4.124;2022-11-12T16:41:03;13.27;;;8.00;;
19535;SDS011;9913;51.168;4.124;2022-11-12T16:43:50;12.40;;;7.97;;
19535;SDS011;9913;51.168;4.124;2022-11-12T16:46:38;13.70;;;8.70;;
19535;SDS011;9913;51.168;4.124;2022-11-12T16:49:24;13.03;;;8.83;;
19535;SDS011;9913;51.168;4.124;2022-11-12T16:52:11;14.67;;;9.73;;
19535;SDS011;9913;51.168;4.124;2022-11-12T16:54:58;14.87;;;9.50;;
19535;SDS011;9913;51.168;4.124;2022-11-12T16:57:50;15.53;;;10.00;;
19535;SDS011;9913;51.168;4.124;2022-11-12T17:00:37;13.37;;;9.17;;
19535;SDS011;9913;51.168;4.124;2022-11-12T17:03:26;19.60;;;12.23;;
19535;SDS011;9913;51.168;4.124;2022-11-12T17:06:13;18.60;;;11.73;;
19535;SDS011;9913;51.168;4.124;2022-11-12T17:08:59;20.13;;;13.07;;
19535;SDS011;9913;51.168;4.124;2022-11-12T17:11:46;24.10;;;13.40;;